Time;durP1;ratioP1;P1;durP2;ratioP2;P2;SDS_P1;SDS_P2;PMS_P1;PMS_P2;Temp;Humidity;BMP_temperature;BMP_pressure;BME280_temperature;BME280_humidity;BME280_pressure;Samples;Min_cycle;Max_cycle;Signal;HPM_P1;HPM_P2
2023/06/07 00:00:41;;;;;;;23.20;8.33;;;;;;;13.44;100.00;102106.84;5048156;28;20024;-73
2023/06/07 00:03:09;;;;;;;25.80;9.07;;;;;;;13.45;100.00;102105.78;5048803;28;20373;-72
2023/06/07 00:05:37;;;;;;;20.05;7.88;;;;;;;13.45;100.00;102114.88;5027829;28;20065;-72
2023/06/07 00:08:03;;;;;;;19.48;8.35;;;;;;;13.46;100.00;102116.59;5027162;28;20033;-71
2023/06/07 00:10:28;;;;;;;19.03;8.47;;;;;;;13.42;100.00;102122.66;5049448;28;20419;-72
2023/06/07 00:12:54;;;;;;;24.07;8.13;;;;;;;13.37;100.00;102112.22;5051613;28;20016;-72
2023/06/07 00:15:19;;;;;;;23.77;8.57;;;;;;;13.34;100.00;102118.09;5048866;28;20035;-72
2023/06/07 00:17:45;;;;;;;19.47;9.10;;;;;;;13.28;100.00;102117.97;5033993;28;20033;-71
2023/06/07 00:20:11;;;;;;;19.77;8.57;;;;;;;13.32;100.00;102111.03;5034245;28;20115;-72
2023/06/07 00:22:37;;;;;;;25.87;8.67;;;;;;;13.23;100.00;102109.41;5052136;28;20028;-72
2023/06/07 00:25:02;;;;;;;17.97;8.93;;;;;;;13.25;100.00;102110.94;5052221;28;20270;-73
2023/06/07 00:27:28;;;;;;;20.27;8.03;;;;;;;13.25;100.00;102115.59;5051409;28;20502;-72
2023/06/07 00:29:53;;;;;;;27.70;8.63;;;;;;;13.26;100.00;102118.16;5052815;28;20041;-72
2023/06/07 00:32:18;;;;;;;26.23;9.40;;;;;;;13.21;100.00;102108.72;5027535;28;20385;-72
2023/06/07 00:34:44;;;;;;;23.97;8.37;;;;;;;13.17;100.00;102102.75;5050573;28;20086;-72
2023/06/07 00:37:09;;;;;;;18.07;8.60;;;;;;;13.21;100.00;102114.22;5052163;28;20061;-72
2023/06/07 00:39:35;;;;;;;16.43;8.00;;;;;;;13.16;100.00;102112.03;5033458;28;20246;-72
2023/06/07 00:42:00;;;;;;;19.33;8.10;;;;;;;13.07;100.00;102101.28;5033630;28;20396;-73
2023/06/07 00:44:26;;;;;;;19.67;9.73;;;;;;;13.06;100.00;102116.06;5050159;28;20123;-73
2023/06/07 00:46:51;;;;;;;25.40;9.23;;;;;;;13.07;100.00;102107.63;5032466;28;20044;-73
2023/06/07 00:49:17;;;;;;;17.07;8.40;;;;;;;12.99;100.00;102115.09;5032295;28;20396;-72
2023/06/07 00:51:44;;;;;;;25.43;10.03;;;;;;;12.98;100.00;102107.88;5051826;28;20025;-72
2023/06/07 00:54:10;;;;;;;;;;;;;;;12.99;100.00;102104.06;5048750;28;20391;-73
2023/06/07 00:56:36;;;;;;;25.67;9.45;;;;;;;12.94;100.00;102100.97;5051034;28;19916;-73
2023/06/07 00:59:03;;;;;;;22.90;10.23;;;;;;;12.90;100.00;102105.13;5046110;28;20020;-73
2023/06/07 01:01:29;;;;;;;;;;;;;;;12.87;100.00;102111.84;5031998;28;21271;-72
2023/06/07 01:03:54;;;;;;;22.45;9.70;;;;;;;12.87;100.00;102109.09;5049900;28;19916;-73
2023/06/07 01:06:22;;;;;;;15.07;9.10;;;;;;;12.83;100.00;102110.53;5032486;28;20066;-73
2023/06/07 01:08:50;;;;;;;18.10;9.25;;;;;;;12.82;100.00;102102.44;5032511;28;20029;-73
2023/06/07 01:11:18;;;;;;;20.30;8.75;;;;;;;12.81;100.00;102109.00;5046517;28;20052;-72
2023/06/07 01:13:44;;;;;;;23.90;9.10;;;;;;;12.81;100.00;102111.75;5030135;28;20033;-73
2023/06/07 01:16:10;;;;;;;23.80;9.23;;;;;;;12.78;100.00;102109.34;5049221;28;20075;-72
2023/06/07 01:18:37;;;;;;;21.33;10.73;;;;;;;12.65;100.00;102106.31;5050306;28;20056;-72
2023/06/07 01:21:04;;;;;;;23.42;9.05;;;;;;;12.67;100.00;102102.38;5047453;28;20079;-72
2023/06/07 01:23:32;;;;;;;18.90;9.43;;;;;;;12.58;100.00;102099.81;5050605;28;20113;-73
2023/06/07 01:25:59;;;;;;;20.67;9.63;;;;;;;12.62;100.00;102095.69;5049985;28;20025;-73
2023/06/07 01:28:26;;;;;;;18.70;9.55;;;;;;;12.57;100.00;102095.34;5050415;28;20036;-73
2023/06/07 01:30:53;;;;;;;;;;;;;;;12.53;100.00;102086.63;5031619;28;20029;-73
2023/06/07 01:33:19;;;;;;;19.27;9.48;;;;;;;12.53;100.00;102085.75;5048488;28;20509;-73
2023/06/07 01:35:46;;;;;;;;;;;;;;;12.53;100.00;102094.00;5048809;28;20024;-72
2023/06/07 01:38:13;;;;;;;24.10;10.00;;;;;;;12.53;100.00;102092.13;5032660;28;20016;-73
2023/06/07 01:40:42;;;;;;;19.95;9.98;;;;;;;12.45;100.00;102094.91;5031040;28;20028;-73
2023/06/07 01:43:08;;;;;;;20.65;9.65;;;;;;;12.42;100.00;102095.25;5049851;28;20017;-72
2023/06/07 01:45:34;;;;;;;;;;;;;;;12.36;100.00;102097.84;5030292;28;20024;-72
2023/06/07 01:48:01;;;;;;;27.73;11.07;;;;;;;12.37;100.00;102100.44;5049450;28;20581;-73
2023/06/07 01:50:26;;;;;;;18.90;10.20;;;;;;;12.44;100.00;102100.59;5048613;28;20570;-73
2023/06/07 01:52:51;;;;;;;21.93;8.97;;;;;;;12.38;100.00;102099.41;5032552;28;20033;-73
2023/06/07 01:55:18;;;;;;;25.10;9.60;;;;;;;12.36;100.00;102084.13;5047221;28;20048;-72
2023/06/07 01:58:14;;;;;;;20.75;9.25;;;;;;;12.33;100.00;102087.25;5048850;28;20032;-72
2023/06/07 02:01:00;;;;;;;20.77;9.25;;;;;;;12.33;100.00;102088.09;5031427;28;20024;-72
2023/06/07 02:03:57;;;;;;;17.65;9.63;;;;;;;12.37;100.00;102077.59;5043814;28;20045;-72
2023/06/07 02:06:34;;;;;;;24.45;8.50;;;;;;;12.23;100.00;102087.44;5017900;28;20578;-73
2023/06/07 02:09:06;;;;;;;23.45;9.20;;;;;;;12.15;100.00;102086.63;5027671;28;20029;-73
2023/06/07 02:11:31;;;;;;;18.75;9.40;;;;;;;12.16;100.00;102086.44;5046912;28;20052;-73
2023/06/07 02:13:58;;;;;;;18.67;9.00;;;;;;;12.18;100.00;102084.38;5027661;28;20044;-73
2023/06/07 02:16:36;;;;;;;16.90;9.38;;;;;;;12.06;100.00;102083.03;5032142;28;20051;-72
2023/06/07 02:19:06;;;;;;;17.95;8.93;;;;;;;12.11;100.00;102082.53;5032251;28;20029;-73
2023/06/07 02:21:41;;;;;;;25.58;9.68;;;;;;;12.10;100.00;102083.53;5050962;28;20472;-72
2023/06/07 02:24:07;;;;;;;24.10;9.18;;;;;;;12.10;100.00;102084.41;5027416;28;20035;-73
2023/06/07 02:26:33;;;;;;;25.47;9.00;;;;;;;12.05;100.00;102081.34;5050220;28;20037;-72
2023/06/07 02:28:59;;;;;;;22.50;8.55;;;;;;;12.07;100.00;102084.75;5032071;28;20505;-73
2023/06/07 02:31:25;;;;;;;16.47;8.07;;;;;;;12.09;100.00;102085.44;5031169;28;20137;-73
2023/06/07 02:33:51;;;;;;;20.52;8.85;;;;;;;12.00;100.00;102082.91;5047560;28;20480;-73
2023/06/07 02:36:25;;;;;;;24.33;7.75;;;;;;;11.94;100.00;102078.97;5030867;28;20472;-72
2023/06/07 02:38:51;;;;;;;15.90;7.75;;;;;;;11.99;100.00;102083.91;5047274;28;20032;-74
2023/06/07 02:41:17;;;;;;;16.92;7.05;;;;;;;12.03;100.00;102088.91;5031593;28;20080;-72
2023/06/07 02:43:43;;;;;;;16.63;7.80;;;;;;;12.03;100.00;102082.53;5048854;28;20029;-72
2023/06/07 02:46:11;;;;;;;20.42;7.07;;;;;;;12.02;100.00;102081.66;5030183;28;20037;-73
2023/06/07 02:48:36;;;;;;;13.65;7.78;;;;;;;11.99;100.00;102078.44;5029473;28;20032;-73
2023/06/07 02:51:02;;;;;;;21.53;8.03;;;;;;;12.00;100.00;102085.66;5049902;28;20028;-72
2023/06/07 02:53:28;;;;;;;23.03;7.90;;;;;;;12.00;100.00;102082.91;5031318;28;20035;-73
2023/06/07 02:55:54;;;;;;;20.90;8.73;;;;;;;11.96;100.00;102078.78;5030381;28;20080;-72
2023/06/07 02:58:19;;;;;;;15.13;7.03;;;;;;;11.98;100.00;102082.22;5049858;28;20406;-72
2023/06/07 03:00:49;;;;;;;19.23;6.93;;;;;;;11.96;100.00;102081.53;5048357;28;20564;-73
2023/06/07 03:03:16;;;;;;;13.98;6.88;;;;;;;11.97;100.00;102081.38;5031016;28;20049;-73
2023/06/07 03:05:44;;;;;;;;;;;;;;;11.90;100.00;102072.09;5049088;28;20021;-72
2023/06/07 03:08:10;;;;;;;20.80;7.30;;;;;;;11.90;100.00;102082.25;5049717;28;19912;-72
2023/06/07 03:10:35;;;;;;;17.97;8.00;;;;;;;11.92;100.00;102085.66;5047421;28;20032;-72
2023/06/07 03:13:01;;;;;;;17.20;7.40;;;;;;;11.93;100.00;102080.00;5048829;28;20083;-72
2023/06/07 03:15:27;;;;;;;25.00;8.30;;;;;;;11.90;100.00;102079.50;5047720;28;20674;-72
2023/06/07 03:17:53;;;;;;;23.90;7.93;;;;;;;11.88;100.00;102078.81;5030835;28;20033;-70
2023/06/07 03:20:20;;;;;;;22.77;7.90;;;;;;;11.83;100.00;102086.72;5048986;28;20492;-70
2023/06/07 03:22:46;;;;;;;27.10;8.15;;;;;;;11.81;100.00;102084.16;5047506;28;20026;-69
2023/06/07 03:25:11;;;;;;;19.07;7.63;;;;;;;11.74;100.00;102079.53;5047497;28;20021;-70
2023/06/07 03:27:37;;;;;;;18.73;8.13;;;;;;;11.79;100.00;102079.88;5048698;28;20083;-69
2023/06/07 03:30:04;;;;;;;18.53;7.67;;;;;;;11.76;100.00;102074.72;5047800;28;20106;-70
2023/06/07 03:32:29;;;;;;;14.35;7.30;;;;;;;11.81;100.00;102075.06;5048058;28;20033;-69
2023/06/07 03:34:55;;;;;;;13.07;7.03;;;;;;;11.82;100.00;102079.50;5050242;28;20055;-69
2023/06/07 03:37:20;;;;;;;19.47;8.47;;;;;;;11.80;100.00;102081.59;5035913;28;20037;-70
2023/06/07 03:39:45;;;;;;;16.23;8.70;;;;;;;11.81;100.00;102078.66;5050631;28;20213;-70
2023/06/07 03:42:11;;;;;;;21.98;6.93;;;;;;;11.80;100.00;102081.59;5053437;28;20056;-70
2023/06/07 03:44:36;;;;;;;21.23;6.57;;;;;;;11.89;100.00;102080.50;5050287;28;20029;-70
2023/06/07 03:47:02;;;;;;;17.43;7.80;;;;;;;11.87;100.00;102079.84;5050294;28;20032;-70
2023/06/07 03:49:27;;;;;;;25.60;8.13;;;;;;;11.87;100.00;102083.47;5048894;28;20097;-70
2023/06/07 03:51:54;;;;;;;14.13;7.23;;;;;;;11.90;100.00;102087.75;5052935;28;20036;-70
2023/06/07 03:54:19;;;;;;;28.30;8.17;;;;;;;11.86;100.00;102078.97;5051508;28;20435;-69
2023/06/07 03:56:45;;;;;;;21.90;8.20;;;;;;;11.94;100.00;102089.09;5035125;28;20281;-69
2023/06/07 03:59:12;;;;;;;21.00;7.13;;;;;;;11.91;100.00;102089.44;5047823;28;20047;-69
2023/06/07 04:01:37;;;;;;;17.45;6.68;;;;;;;11.93;100.00;102076.38;5033639;28;20036;-69
2023/06/07 04:04:03;;;;;;;22.60;7.17;;;;;;;11.94;100.00;102089.09;5051365;28;20102;-70
2023/06/07 04:06:28;;;;;;;18.93;6.67;;;;;;;11.95;100.00;102093.56;5031404;28;20044;-70
2023/06/07 04:08:59;;;;;;;23.73;8.40;;;;;;;11.98;100.00;102102.31;5049346;28;20025;-69
2023/06/07 04:11:27;;;;;;;17.38;6.57;;;;;;;12.09;100.00;102098.31;5052726;28;20035;-70
2023/06/07 04:13:52;;;;;;;17.75;6.28;;;;;;;12.12;100.00;102093.31;5051169;28;20075;-70
2023/06/07 04:16:18;;;;;;;14.83;6.27;;;;;;;12.11;100.00;102099.00;5029206;28;20065;-69
2023/06/07 04:18:43;;;;;;;23.03;7.27;;;;;;;12.17;100.00;102101.03;5032233;28;20032;-70
2023/06/07 04:21:09;;;;;;;18.47;6.40;;;;;;;12.16;100.00;102102.09;5050628;28;20546;-69
2023/06/07 04:23:34;;;;;;;17.57;7.60;;;;;;;12.28;100.00;102093.25;5050589;28;20037;-70
2023/06/07 04:26:04;;;;;;;12.87;7.27;;;;;;;12.35;100.00;102105.28;5033766;28;20053;-70
2023/06/07 04:28:30;;;;;;;18.13;6.50;;;;;;;12.21;100.00;102105.13;5034030;28;20033;-69
2023/06/07 04:30:57;;;;;;;18.17;5.97;;;;;;;12.29;100.00;102105.97;5048358;28;20090;-68
2023/06/07 04:33:23;;;;;;;21.58;7.20;;;;;;;12.26;100.00;102105.47;5051488;28;20515;-69
2023/06/07 04:35:50;;;;;;;24.42;6.55;;;;;;;12.36;100.00;102106.09;5051264;28;20067;-69
2023/06/07 04:38:21;;;;;;;23.55;6.75;;;;;;;12.25;100.00;102104.63;5030037;28;20083;-69
2023/06/07 04:40:50;;;;;;;24.60;6.97;;;;;;;12.36;100.00;102114.34;5047025;28;20459;-69
2023/06/07 04:43:19;;;;;;;18.67;5.93;;;;;;;12.43;100.00;102107.97;5030360;28;20035;-70
2023/06/07 04:45:54;;;;;;;27.30;6.38;;;;;;;12.38;100.00;102110.38;5047499;28;20048;-71
2023/06/07 04:48:25;;;;;;;20.20;6.70;;;;;;;12.29;100.00;102105.97;5049478;28;20090;-69
2023/06/07 04:50:51;;;;;;;19.85;6.18;;;;;;;12.30;100.00;102102.19;5033063;28;20036;-70
2023/06/07 04:53:21;;;;;;;22.27;5.97;;;;;;;12.28;100.00;102097.91;5049018;28;20116;-69
2023/06/07 04:55:50;;;;;;;22.80;6.63;;;;;;;12.33;100.00;102111.97;5045049;28;20024;-70
2023/06/07 04:58:16;;;;;;;16.45;5.70;;;;;;;12.22;100.00;102109.63;5032952;28;20079;-70
2023/06/07 05:00:42;;;;;;;25.50;6.20;;;;;;;12.18;100.00;102102.75;5048292;28;20515;-70
2023/06/07 05:03:08;;;;;;;20.15;5.97;;;;;;;12.09;100.00;102095.56;5028936;28;20151;-70
2023/06/07 05:05:34;;;;;;;23.10;6.67;;;;;;;12.17;100.00;102101.88;5027445;28;20115;-69
2023/06/07 05:08:01;;;;;;;18.67;6.55;;;;;;;12.06;100.00;102099.53;5045288;28;20032;-70
2023/06/07 05:10:26;;;;;;;19.60;6.55;;;;;;;12.05;100.00;102097.81;5032667;28;20036;-69
2023/06/07 05:12:52;;;;;;;18.90;6.63;;;;;;;12.10;100.00;102106.38;5050671;28;20676;-69
2023/06/07 05:15:17;;;;;;;18.43;6.27;;;;;;;12.11;100.00;102107.25;5048751;28;20067;-69
2023/06/07 05:17:45;;;;;;;20.07;6.27;;;;;;;12.16;100.00;102102.94;5031710;28;20479;-70
2023/06/07 05:20:12;;;;;;;21.90;7.43;;;;;;;12.28;100.00;102108.91;5046005;28;20041;-70
2023/06/07 05:22:43;;;;;;;22.45;7.70;;;;;;;12.32;100.00;102104.78;5043563;28;20358;-70
2023/06/07 05:25:11;;;;;;;18.92;6.60;;;;;;;12.30;100.00;102102.19;5028941;28;20033;-70
2023/06/07 05:27:42;;;;;;;19.95;6.68;;;;;;;12.43;100.00;102105.22;5049041;28;20035;-70
2023/06/07 05:30:08;;;;;;;19.50;5.97;;;;;;;12.47;100.00;102105.72;5023501;28;20156;-69
2023/06/07 05:32:34;;;;;;;25.52;7.05;;;;;;;12.55;100.00;102100.19;5048625;28;20037;-69
2023/06/07 05:35:01;;;;;;;22.73;6.18;;;;;;;12.50;100.00;102108.94;5040301;28;20416;-70
2023/06/07 05:37:27;;;;;;;29.33;7.30;;;;;;;12.61;100.00;102111.34;5047820;28;20408;-69
2023/06/07 05:39:55;;;;;;;22.98;8.30;;;;;;;12.80;99.59;102105.38;5044618;28;20396;-69
2023/06/07 05:42:21;;;;;;;23.50;6.22;;;;;;;12.85;99.03;102113.94;5044613;28;20098;-69
2023/06/07 05:44:48;;;;;;;17.23;6.47;;;;;;;12.91;98.96;102112.38;5027078;28;20460;-69
2023/06/07 05:47:13;;;;;;;;;;;;;;;13.01;98.42;102118.50;5049493;28;20029;-69
2023/06/07 05:49:39;;;;;;;18.95;6.07;;;;;;;13.25;97.77;102115.59;5046514;28;19986;-69
2023/06/07 05:52:05;;;;;;;25.80;6.93;;;;;;;13.28;96.88;102120.72;5046694;28;20056;-69
2023/06/07 05:54:30;;;;;;;19.45;6.22;;;;;;;13.46;96.70;102124.84;5019168;28;20079;-69
2023/06/07 05:56:56;;;;;;;23.30;6.53;;;;;;;13.65;95.68;102121.59;5050245;28;20045;-69
2023/06/07 05:59:21;;;;;;;16.67;5.97;;;;;;;13.47;95.58;102129.34;5027756;28;20036;-69
2023/06/07 06:01:48;;;;;;;20.47;6.80;;;;;;;13.46;95.86;102135.03;5032010;28;20035;-69
2023/06/07 06:04:13;;;;;;;23.73;6.70;;;;;;;13.55;95.80;102128.44;5045768;28;20058;-69
2023/06/07 06:06:38;;;;;;;28.73;7.07;;;;;;;13.76;94.98;102125.81;5048051;28;20094;-69
2023/06/07 06:09:07;;;;;;;28.60;7.13;;;;;;;13.94;94.89;102126.31;5046322;28;20045;-68
2023/06/07 06:11:33;;;;;;;26.27;6.80;;;;;;;14.06;93.44;102130.31;5050549;28;20032;-68
2023/06/07 06:13:58;;;;;;;24.93;6.03;;;;;;;14.58;90.32;102129.19;5045623;28;20369;-67
2023/06/07 06:16:23;;;;;;;26.27;5.50;;;;;;;15.22;87.06;102139.31;5049523;28;20029;-69
2023/06/07 06:18:49;;;;;;;22.90;6.90;;;;;;;15.81;84.46;102134.41;5050643;28;20083;-68
2023/06/07 06:21:14;;;;;;;23.20;7.33;;;;;;;15.40;84.02;102137.00;5049240;28;20070;-68
2023/06/07 06:23:40;;;;;;;15.00;5.57;;;;;;;15.13;86.04;102129.47;5032335;28;20021;-68
2023/06/07 06:26:05;;;;;;;16.47;5.90;;;;;;;15.10;85.72;102126.25;5049005;28;20041;-68
2023/06/07 06:28:31;;;;;;;23.93;6.00;;;;;;;14.90;87.17;102127.91;5049880;28;20032;-68
2023/06/07 06:30:56;;;;;;;18.67;5.93;;;;;;;14.74;87.51;102128.13;5049879;28;20472;-71
2023/06/07 06:33:22;;;;;;;18.50;6.30;;;;;;;14.69;87.81;102137.00;5031156;28;20033;-70
2023/06/07 06:35:47;;;;;;;20.70;6.00;;;;;;;14.95;88.05;102141.97;5047517;28;20067;-71
2023/06/07 06:38:13;;;;;;;21.90;6.30;;;;;;;15.24;86.24;102140.00;5047524;28;20037;-70
2023/06/07 06:40:39;;;;;;;20.93;6.53;;;;;;;15.70;86.06;102134.94;5050166;28;20090;-71
2023/06/07 06:43:05;;;;;;;26.95;6.35;;;;;;;15.47;84.98;102137.06;5049199;28;20717;-71
2023/06/07 06:45:31;;;;;;;21.17;6.07;;;;;;;16.14;84.07;102150.19;5021142;28;20083;-71
2023/06/07 06:47:58;;;;;;;33.40;6.70;;;;;;;16.46;81.43;102140.44;5047761;28;20043;-71
2023/06/07 06:50:23;;;;;;;24.92;7.63;;;;;;;16.45;79.70;102136.81;5043742;28;20492;-71
2023/06/07 06:52:49;;;;;;;15.70;5.33;;;;;;;16.04;81.07;102135.00;5049775;28;20115;-71
2023/06/07 06:55:14;;;;;;;13.53;5.43;;;;;;;15.82;82.61;102138.88;5050276;28;20184;-71
2023/06/07 06:57:40;;;;;;;30.67;6.87;;;;;;;15.47;83.72;102137.91;5032000;28;20369;-71
2023/06/07 07:00:11;;;;;;;22.43;6.17;;;;;;;15.60;84.28;102146.34;5048351;28;20044;-71
2023/06/07 07:02:37;;;;;;;19.10;7.18;;;;;;;15.78;83.60;102137.56;5044713;28;20052;-71
2023/06/07 07:05:05;;;;;;;21.40;7.03;;;;;;;15.96;83.26;102129.63;5048191;28;20080;-71
2023/06/07 07:07:31;;;;;;;23.80;6.13;;;;;;;15.98;82.89;102131.16;5049955;28;20086;-71
2023/06/07 07:09:56;;;;;;;19.67;6.15;;;;;;;16.24;81.64;102130.47;5048596;28;20124;-71
2023/06/07 07:12:22;;;;;;;25.17;6.83;;;;;;;16.79;79.99;102131.25;5049886;28;20536;-71
2023/06/07 07:14:47;;;;;;;21.73;6.57;;;;;;;17.72;77.64;102140.44;5047418;28;20028;-71
2023/06/07 07:17:13;;;;;;;17.57;5.77;;;;;;;18.06;72.78;102136.59;5047501;28;20075;-71
2023/06/07 07:19:38;;;;;;;19.33;5.10;;;;;;;18.45;72.03;102144.88;5042584;28;20115;-71
2023/06/07 07:22:04;;;;;;;29.33;6.70;;;;;;;18.81;69.53;102147.97;5046126;28;20025;-71
2023/06/07 07:24:30;;;;;;;19.13;5.73;;;;;;;18.37;70.59;102134.03;5031952;28;20025;-72
2023/06/07 07:26:55;;;;;;;22.60;5.50;;;;;;;19.10;69.22;102134.38;5049515;28;20135;-72
2023/06/07 07:29:21;;;;;;;24.90;6.17;;;;;;;19.01;68.37;102141.28;5049076;28;20059;-71
2023/06/07 07:31:46;;;;;;;25.27;6.00;;;;;;;18.37;70.16;102142.34;5030663;28;20365;-71
2023/06/07 07:34:12;;;;;;;17.27;5.33;;;;;;;18.04;72.80;102149.84;5048684;28;20044;-71
2023/06/07 07:36:44;;;;;;;18.10;5.43;;;;;;;18.02;72.43;102141.72;5030758;28;20111;-71
2023/06/07 07:39:18;;;;;;;16.38;5.07;;;;;;;18.97;68.85;102150.25;5047117;28;20032;-71
2023/06/07 07:41:44;;;;;;;15.65;5.10;;;;;;;19.61;67.85;102151.00;5046143;28;20452;-71
2023/06/07 07:44:09;;;;;;;16.57;4.97;;;;;;;19.35;66.37;102156.72;5031493;28;20159;-71
2023/06/07 07:46:35;;;;;;;16.70;4.97;;;;;;;18.92;68.37;102164.81;5045326;28;20029;-71
2023/06/07 07:49:01;;;;;;;18.40;5.18;;;;;;;19.27;67.57;102168.94;5049050;28;20446;-71
2023/06/07 07:51:26;;;;;;;19.97;4.93;;;;;;;19.38;68.56;102168.22;5048513;28;20043;-72
2023/06/07 07:53:54;;;;;;;13.10;4.67;;;;;;;19.70;67.27;102163.56;5049451;28;20025;-71
2023/06/07 07:56:23;;;;;;;14.13;5.53;;;;;;;20.25;65.24;102165.47;5048849;28;20048;-71
2023/06/07 07:58:49;;;;;;;17.65;5.55;;;;;;;19.28;65.80;102167.03;5048700;28;20036;-71
2023/06/07 08:01:18;;;;;;;18.08;4.97;;;;;;;19.86;65.59;102163.00;5028628;28;20078;-71
2023/06/07 08:03:45;;;;;;;19.73;5.90;;;;;;;19.99;64.12;102165.66;5048860;28;20049;-70
2023/06/07 08:06:10;;;;;;;15.48;4.95;;;;;;;18.19;68.38;102162.41;5029773;28;20060;-71
2023/06/07 08:08:36;;;;;;;15.23;4.60;;;;;;;18.16;69.66;102159.19;5029990;28;20087;-73
2023/06/07 08:11:02;;;;;;;23.80;5.07;;;;;;;18.83;68.97;102168.91;5049402;28;20544;-71
2023/06/07 08:13:28;;;;;;;16.63;4.77;;;;;;;19.27;67.13;102171.72;5048767;28;20064;-71
2023/06/07 08:16:02;;;;;;;19.05;6.40;;;;;;;19.05;68.18;102166.69;5047675;28;20028;-71
2023/06/07 08:18:28;;;;;;;17.00;5.78;;;;;;;19.11;67.79;102163.03;5046373;28;20025;-71
2023/06/07 08:20:53;;;;;;;17.00;4.83;;;;;;;19.21;67.55;102152.28;5028573;28;20025;-71
2023/06/07 08:23:19;;;;;;;11.87;4.27;;;;;;;19.03;67.71;102154.94;5030442;28;20025;-71
2023/06/07 08:25:44;;;;;;;20.77;5.00;;;;;;;19.04;66.81;102160.28;5047750;28;20070;-71
2023/06/07 08:28:09;;;;;;;10.47;4.70;;;;;;;19.09;67.14;102159.59;5050686;28;20365;-71
2023/06/07 08:30:35;;;;;;;15.77;4.53;;;;;;;18.93;66.01;102157.31;5033447;28;20031;-71
2023/06/07 08:33:00;;;;;;;17.83;4.43;;;;;;;19.01;67.39;102148.75;5049158;28;20361;-71
2023/06/07 08:35:26;;;;;;;16.90;4.70;;;;;;;18.67;67.97;102154.66;5052317;28;20029;-71
2023/06/07 08:37:51;;;;;;;11.53;4.20;;;;;;;18.79;67.52;102153.75;5048541;28;20020;-72
2023/06/07 08:40:18;;;;;;;15.37;5.40;;;;;;;19.10;67.61;102155.78;5049715;28;20393;-71
2023/06/07 08:42:44;;;;;;;14.43;4.65;;;;;;;18.87;67.78;102141.53;5048572;28;20123;-71
2023/06/07 08:45:10;;;;;;;18.47;5.27;;;;;;;18.70;67.76;102148.66;5032269;28;20028;-72
2023/06/07 08:47:36;;;;;;;15.55;5.43;;;;;;;18.57;69.13;102155.09;5049151;28;20544;-71
2023/06/07 08:50:02;;;;;;;17.20;5.75;;;;;;;18.33;70.07;102153.03;5041211;28;20119;-71
2023/06/07 08:52:30;;;;;;;16.90;5.50;;;;;;;18.71;69.46;102161.47;5046459;28;20144;-72
2023/06/07 08:55:02;;;;;;;20.27;5.97;;;;;;;18.89;67.74;102150.53;5049162;28;20041;-72
2023/06/07 08:57:30;;;;;;;12.50;5.78;;;;;;;19.11;67.66;102151.91;5044810;28;20028;-73
2023/06/07 08:59:56;;;;;;;15.07;5.30;;;;;;;19.58;66.16;102151.47;5028459;28;20139;-72
2023/06/07 09:02:24;;;;;;;15.00;5.72;;;;;;;20.32;64.41;102149.56;5048176;28;20116;-72
2023/06/07 09:04:49;;;;;;;20.52;5.60;;;;;;;20.04;62.73;102160.28;5045193;28;20090;-72
2023/06/07 09:07:15;;;;;;;21.77;6.80;;;;;;;20.43;63.47;102155.22;5047993;28;20013;-72
2023/06/07 09:09:43;;;;;;;14.30;5.60;;;;;;;20.49;62.42;102148.72;5038542;28;20458;-72
2023/06/07 09:12:10;;;;;;;13.98;5.28;;;;;;;20.73;60.79;102155.31;5047127;28;20029;-72
2023/06/07 09:14:36;;;;;;;14.43;5.45;;;;;;;20.73;60.83;102152.53;5040689;28;20064;-72
2023/06/07 09:17:02;;;;;;;12.68;5.20;;;;;;;21.13;60.25;102159.34;5041190;28;20225;-72
2023/06/07 09:19:36;;;;;;;16.65;5.47;;;;;;;21.13;59.87;102157.41;5028077;28;20033;-72
2023/06/07 09:22:03;;;;;;;11.25;4.88;;;;;;;20.94;59.42;102155.75;5027559;28;20024;-72
2023/06/07 09:24:29;;;;;;;16.85;5.45;;;;;;;21.26;58.43;102156.38;5030225;28;20056;-72
2023/06/07 09:26:55;;;;;;;16.90;6.80;;;;;;;20.79;60.19;102152.47;5043901;28;20063;-72
2023/06/07 09:29:21;;;;;;;17.02;5.60;;;;;;;20.98;59.60;102154.16;5042970;28;20286;-72
2023/06/07 09:31:47;;;;;;;15.80;5.60;;;;;;;21.20;58.92;102147.03;5025287;28;20080;-72
2023/06/07 09:34:26;;;;;;;17.03;5.73;;;;;;;21.20;58.25;102149.81;5048125;28;20077;-72
2023/06/07 09:36:53;;;;;;;14.80;5.07;;;;;;;21.27;59.11;102138.56;5028992;28;20033;-72
2023/06/07 09:39:23;;;;;;;13.43;5.30;;;;;;;21.42;59.25;102152.94;5047934;28;20057;-72
2023/06/07 09:41:54;;;;;;;18.58;5.40;;;;;;;21.22;60.32;102144.00;5045104;28;20040;-72
2023/06/07 09:44:27;;;;;;;14.68;5.68;;;;;;;21.37;59.24;102134.13;5043146;28;20035;-71
2023/06/07 09:46:56;;;;;;;11.07;5.28;;;;;;;21.61;57.89;102135.91;5043120;28;20020;-70
2023/06/07 09:49:26;;;;;;;12.00;6.00;;;;;;;21.65;58.11;102134.34;5049731;28;20021;-71
2023/06/07 09:51:53;;;;;;;12.65;6.63;;;;;;;21.79;57.96;102133.09;5025060;28;20033;-70
2023/06/07 09:54:39;;;;;;;16.20;5.45;;;;;;;21.54;59.01;102134.28;5044371;28;20056;-70
2023/06/07 09:57:27;;;;;;;12.07;5.15;;;;;;;21.69;58.82;102131.94;5049812;28;20044;-70
2023/06/07 09:59:58;;;;;;;;;;;;;;;21.84;57.74;102129.56;5048908;28;20032;-70
2023/06/07 10:02:29;;;;;;;18.75;5.90;;;;;;;21.86;56.41;102119.00;5044611;28;19917;-70
2023/06/07 10:04:56;;;;;;;14.98;5.90;;;;;;;22.19;56.56;102124.88;5050611;28;20060;-71
2023/06/07 10:07:23;;;;;;;13.50;5.80;;;;;;;22.23;57.53;102128.84;5050746;28;20021;-71
2023/06/07 10:09:57;;;;;;;16.50;6.15;;;;;;;22.69;56.03;102123.28;5032731;28;20067;-70
2023/06/07 10:12:28;;;;;;;11.32;5.25;;;;;;;22.50;55.81;102125.38;5046735;28;20380;-71
2023/06/07 10:14:54;;;;;;;14.35;6.00;;;;;;;22.46;55.51;102126.94;5051300;28;20078;-71
2023/06/07 10:17:27;;;;;;;16.63;5.85;;;;;;;22.33;55.92;102124.38;5049394;28;20033;-71
2023/06/07 10:19:59;;;;;;;20.80;5.80;;;;;;;23.02;54.85;102129.88;5050757;28;20029;-71
2023/06/07 10:22:31;;;;;;;12.55;5.05;;;;;;;23.42;53.72;102125.13;5030542;28;20112;-71
2023/06/07 10:25:09;;;;;;;12.25;5.38;;;;;;;23.30;53.46;102129.06;5044225;28;20708;-71
2023/06/07 10:27:51;;;;;;;15.07;6.00;;;;;;;23.54;51.86;102133.47;5030826;28;20029;-71
2023/06/07 10:30:17;;;;;;;15.48;6.10;;;;;;;23.07;52.99;102132.78;5047511;28;20170;-71
2023/06/07 10:32:45;;;;;;;22.52;5.68;;;;;;;23.37;53.07;102127.81;5029112;28;20033;-71
2023/06/07 10:35:11;;;;;;;16.75;5.35;;;;;;;23.29;54.11;102125.44;5031603;28;20119;-71
2023/06/07 10:37:37;;;;;;;19.27;6.07;;;;;;;23.46;53.28;102126.31;5043315;28;20151;-71
2023/06/07 10:40:09;;;;;;;18.58;6.43;;;;;;;23.39;53.24;102125.63;5049047;28;20094;-72
2023/06/07 10:42:44;;;;;;;16.98;5.70;;;;;;;23.55;52.29;102118.38;5049903;28;20383;-71
2023/06/07 10:45:15;;;;;;;24.25;5.80;;;;;;;23.45;52.71;102116.22;5042251;28;20410;-71
2023/06/07 10:47:41;;;;;;;13.38;5.28;;;;;;;24.12;51.19;102108.75;5050252;28;20112;-72
2023/06/07 10:50:07;;;;;;;;;;;;;;;23.79;51.43;102117.13;5051507;28;20387;-72
2023/06/07 10:52:32;;;;;;;15.10;5.72;;;;;;;23.73;51.67;102112.53;5027442;28;19969;-72
2023/06/07 10:54:58;;;;;;;14.55;5.65;;;;;;;24.04;51.17;102111.97;5047369;28;20107;-71
2023/06/07 10:57:35;;;;;;;13.83;5.20;;;;;;;23.60;52.94;102113.72;5047078;28;20130;-71
2023/06/07 11:00:25;;;;;;;20.35;5.68;;;;;;;23.79;51.89;102112.38;5047001;28;20027;-71
2023/06/07 11:02:50;;;;;;;18.27;5.88;;;;;;;24.32;51.18;102112.72;5024531;28;20032;-72
2023/06/07 11:05:17;;;;;;;18.92;5.95;;;;;;;24.34;50.71;102118.06;5025627;28;20110;-72
2023/06/07 11:07:47;;;;;;;16.10;5.07;;;;;;;24.60;49.49;102100.56;5028459;28;20706;-72
2023/06/07 11:10:18;;;;;;;17.38;5.95;;;;;;;24.41;48.82;102107.53;5050019;28;20312;-72
2023/06/07 11:12:44;;;;;;;18.25;6.32;;;;;;;24.57;48.60;102093.47;5042506;28;20143;-71
2023/06/07 11:15:35;;;;;;;14.73;5.25;;;;;;;24.69;49.59;102099.84;5067425;28;20480;-72